sensor_id;sensor_type;location;lat;lon;timestamp;P1;durP1;ratioP1;P2;durP2;ratioP2
39898;SDS011;25571;47.876;10.642;2023-05-19T00:01:26;2.30;;;1.38;;
39898;SDS011;25571;47.876;10.642;2023-05-19T00:03:53;1.73;;;1.50;;
39898;SDS011;25571;47.876;10.642;2023-05-19T00:06:29;1.70;;;1.10;;
39898;SDS011;25571;47.876;10.642;2023-05-19T00:09:00;2.22;;;1.48;;
39898;SDS011;25571;47.876;10.642;2023-05-19T00:11:28;1.63;;;1.52;;
39898;SDS011;25571;47.876;10.642;2023-05-19T00:13:54;1.65;;;1.30;;
39898;SDS011;25571;47.876;10.642;2023-05-19T00:16:22;2.00;;;1.42;;
39898;SDS011;25571;47.876;10.642;2023-05-19T00:18:48;2.63;;;1.70;;
39898;SDS011;25571;47.876;10.642;2023-05-19T00:21:15;2.38;;;1.20;;
39898;SDS011;25571;47.876;10.642;2023-05-19T00:23:41;1.90;;;1.30;;
39898;SDS011;25571;47.876;10.642;2023-05-19T00:26:07;3.10;;;1.65;;
39898;SDS011;25571;47.876;10.642;2023-05-19T00:28:32;1.38;;;1.23;;
39898;SDS011;25571;47.876;10.642;2023-05-19T00:30:58;3.15;;;1.92;;
39898;SDS011;25571;47.876;10.642;2023-05-19T00:33:25;3.60;;;1.60;;
39898;SDS011;25571;47.876;10.642;2023-05-19T00:35:50;1.85;;;1.45;;
39898;SDS011;25571;47.876;10.642;2023-05-19T00:38:16;2.78;;;1.58;;
39898;SDS011;25571;47.876;10.642;2023-05-19T00:40:41;3.42;;;1.70;;
39898;SDS011;25571;47.876;10.642;2023-05-19T00:43:07;3.15;;;1.80;;
39898;SDS011;25571;47.876;10.642;2023-05-19T00:45:33;3.55;;;2.10;;
39898;SDS011;25571;47.876;10.642;2023-05-19T00:47:58;1.60;;;1.50;;
39898;SDS011;25571;47.876;10.642;2023-05-19T00:50:24;2.22;;;1.70;;
39898;SDS011;25571;47.876;10.642;2023-05-19T00:52:52;1.90;;;1.50;;
39898;SDS011;25571;47.876;10.642;2023-05-19T00:57:48;1.70;;;1.48;;
39898;SDS011;25571;47.876;10.642;2023-05-19T01:00:14;1.67;;;1.48;;
39898;SDS011;25571;47.876;10.642;2023-05-19T01:02:41;2.25;;;1.40;;
39898;SDS011;25571;47.876;10.642;2023-05-19T01:05:07;2.03;;;1.38;;
39898;SDS011;25571;47.876;10.642;2023-05-19T01:07:33;1.80;;;1.45;;
39898;SDS011;25571;47.876;10.642;2023-05-19T01:09:59;1.48;;;1.30;;
39898;SDS011;25571;47.876;10.642;2023-05-19T01:12:24;2.20;;;1.40;;
39898;SDS011;25571;47.876;10.642;2023-05-19T01:14:51;1.80;;;1.48;;
39898;SDS011;25571;47.876;10.642;2023-05-19T01:17:20;2.22;;;1.60;;
39898;SDS011;25571;47.876;10.642;2023-05-19T01:20:09;2.92;;;1.58;;
39898;SDS011;25571;47.876;10.642;2023-05-19T01:30:46;2.25;;;1.48;;
39898;SDS011;25571;47.876;10.642;2023-05-19T01:33:16;1.90;;;1.48;;
39898;SDS011;25571;47.876;10.642;2023-05-19T01:35:44;3.95;;;1.63;;
39898;SDS011;25571;47.876;10.642;2023-05-19T01:38:12;2.23;;;1.50;;
39898;SDS011;25571;47.876;10.642;2023-05-19T01:40:41;2.08;;;1.63;;
39898;SDS011;25571;47.876;10.642;2023-05-19T01:43:09;2.00;;;1.67;;
39898;SDS011;25571;47.876;10.642;2023-05-19T01:45:45;2.75;;;1.67;;
39898;SDS011;25571;47.876;10.642;2023-05-19T01:48:11;1.80;;;1.60;;
39898;SDS011;25571;47.876;10.642;2023-05-19T01:50:38;2.30;;;1.50;;
39898;SDS011;25571;47.876;10.642;2023-05-19T01:53:05;3.58;;;1.65;;
39898;SDS011;25571;47.876;10.642;2023-05-19T01:55:30;2.08;;;1.67;;
39898;SDS011;25571;47.876;10.642;2023-05-19T02:06:02;2.55;;;1.73;;
39898;SDS011;25571;47.876;10.642;2023-05-19T02:08:41;3.35;;;1.70;;
39898;SDS011;25571;47.876;10.642;2023-05-19T02:11:18;1.98;;;1.60;;
39898;SDS011;25571;47.876;10.642;2023-05-19T02:13:49;2.92;;;1.83;;
39898;SDS011;25571;47.876;10.642;2023-05-19T02:16:20;2.85;;;1.63;;
39898;SDS011;25571;47.876;10.642;2023-05-19T02:18:51;2.58;;;1.65;;
39898;SDS011;25571;47.876;10.642;2023-05-19T02:21:17;3.17;;;2.47;;
39898;SDS011;25571;47.876;10.642;2023-05-19T02:23:43;9.90;;;6.20;;
39898;SDS011;25571;47.876;10.642;2023-05-19T02:26:09;16.25;;;10.15;;
39898;SDS011;25571;47.876;10.642;2023-05-19T02:28:34;9.73;;;6.60;;
39898;SDS011;25571;47.876;10.642;2023-05-19T02:31:03;5.95;;;3.72;;
39898;SDS011;25571;47.876;10.642;2023-05-19T02:33:32;5.65;;;3.42;;
39898;SDS011;25571;47.876;10.642;2023-05-19T02:35:58;6.72;;;6.22;;
39898;SDS011;25571;47.876;10.642;2023-05-19T02:38:23;4.88;;;4.38;;
39898;SDS011;25571;47.876;10.642;2023-05-19T02:40:52;3.90;;;3.45;;
39898;SDS011;25571;47.876;10.642;2023-05-19T02:43:18;3.40;;;3.10;;
39898;SDS011;25571;47.876;10.642;2023-05-19T02:45:44;4.18;;;2.95;;
39898;SDS011;25571;47.876;10.642;2023-05-19T02:48:09;5.20;;;3.65;;
39898;SDS011;25571;47.876;10.642;2023-05-19T02:50:36;6.90;;;4.03;;
39898;SDS011;25571;47.876;10.642;2023-05-19T02:53:02;5.65;;;3.08;;
39898;SDS011;25571;47.876;10.642;2023-05-19T02:55:28;4.38;;;3.03;;
39898;SDS011;25571;47.876;10.642;2023-05-19T02:57:54;4.75;;;2.97;;
39898;SDS011;25571;47.876;10.642;2023-05-19T03:00:19;3.72;;;2.50;;
39898;SDS011;25571;47.876;10.642;2023-05-19T03:02:45;4.63;;;2.45;;
39898;SDS011;25571;47.876;10.642;2023-05-19T03:05:10;3.85;;;2.85;;
39898;SDS011;25571;47.876;10.642;2023-05-19T03:07:38;7.00;;;3.33;;
39898;SDS011;25571;47.876;10.642;2023-05-19T03:10:03;5.22;;;4.40;;
39898;SDS011;25571;47.876;10.642;2023-05-19T03:12:30;5.00;;;4.22;;
39898;SDS011;25571;47.876;10.642;2023-05-19T03:14:57;4.50;;;3.28;;
39898;SDS011;25571;47.876;10.642;2023-05-19T03:17:23;6.55;;;4.32;;
39898;SDS011;25571;47.876;10.642;2023-05-19T03:19:48;7.88;;;5.72;;
39898;SDS011;25571;47.876;10.642;2023-05-19T03:22:15;8.07;;;5.78;;
39898;SDS011;25571;47.876;10.642;2023-05-19T03:24:42;7.90;;;5.45;;
39898;SDS011;25571;47.876;10.642;2023-05-19T03:27:08;6.70;;;4.60;;
39898;SDS011;25571;47.876;10.642;2023-05-19T03:29:34;8.25;;;6.28;;
39898;SDS011;25571;47.876;10.642;2023-05-19T03:32:00;8.00;;;5.47;;
39898;SDS011;25571;47.876;10.642;2023-05-19T03:34:26;7.55;;;4.35;;
39898;SDS011;25571;47.876;10.642;2023-05-19T03:36:52;5.55;;;3.67;;
39898;SDS011;25571;47.876;10.642;2023-05-19T03:39:17;5.15;;;3.50;;
39898;SDS011;25571;47.876;10.642;2023-05-19T03:41:43;5.05;;;3.50;;
39898;SDS011;25571;47.876;10.642;2023-05-19T03:44:08;6.38;;;3.90;;
39898;SDS011;25571;47.876;10.642;2023-05-19T03:46:34;6.55;;;4.28;;
39898;SDS011;25571;47.876;10.642;2023-05-19T03:49:00;5.80;;;4.68;;
39898;SDS011;25571;47.876;10.642;2023-05-19T03:51:25;8.23;;;4.30;;
39898;SDS011;25571;47.876;10.642;2023-05-19T03:53:52;4.28;;;3.40;;
39898;SDS011;25571;47.876;10.642;2023-05-19T03:56:18;5.93;;;3.75;;
39898;SDS011;25571;47.876;10.642;2023-05-19T03:58:44;6.20;;;4.10;;
39898;SDS011;25571;47.876;10.642;2023-05-19T04:01:10;5.45;;;4.13;;
39898;SDS011;25571;47.876;10.642;2023-05-19T04:03:36;5.93;;;3.95;;
39898;SDS011;25571;47.876;10.642;2023-05-19T04:06:02;7.00;;;4.80;;
39898;SDS011;25571;47.876;10.642;2023-05-19T04:08:27;7.35;;;4.47;;
39898;SDS011;25571;47.876;10.642;2023-05-19T04:10:53;4.63;;;3.38;;
39898;SDS011;25571;47.876;10.642;2023-05-19T04:13:19;5.28;;;3.92;;
39898;SDS011;25571;47.876;10.642;2023-05-19T04:15:45;7.85;;;4.80;;
39898;SDS011;25571;47.876;10.642;2023-05-19T04:18:11;6.65;;;4.57;;
39898;SDS011;25571;47.876;10.642;2023-05-19T04:20:36;6.75;;;4.00;;
39898;SDS011;25571;47.876;10.642;2023-05-19T04:23:02;5.35;;;3.92;;
39898;SDS011;25571;47.876;10.642;2023-05-19T04:25:27;7.88;;;3.80;;
39898;SDS011;25571;47.876;10.642;2023-05-19T04:27:53;8.30;;;5.50;;
39898;SDS011;25571;47.876;10.642;2023-05-19T04:30:21;6.77;;;4.60;;
39898;SDS011;25571;47.876;10.642;2023-05-19T04:32:48;5.45;;;3.90;;
39898;SDS011;25571;47.876;10.642;2023-05-19T04:35:16;5.38;;;3.70;;
39898;SDS011;25571;47.876;10.642;2023-05-19T04:37:43;5.28;;;4.40;;
39898;SDS011;25571;47.876;10.642;2023-05-19T04:40:10;7.10;;;3.47;;
39898;SDS011;25571;47.876;10.642;2023-05-19T04:42:39;8.70;;;5.05;;
39898;SDS011;25571;47.876;10.642;2023-05-19T04:45:05;5.65;;;4.47;;
39898;SDS011;25571;47.876;10.642;2023-05-19T04:47:33;4.75;;;3.80;;
39898;SDS011;25571;47.876;10.642;2023-05-19T04:50:02;8.50;;;4.88;;
39898;SDS011;25571;47.876;10.642;2023-05-19T04:52:28;5.93;;;3.92;;
39898;SDS011;25571;47.876;10.642;2023-05-19T04:54:54;7.22;;;4.28;;
39898;SDS011;25571;47.876;10.642;2023-05-19T04:57:20;7.03;;;3.95;;
39898;SDS011;25571;47.876;10.642;2023-05-19T04:59:46;6.95;;;4.22;;
39898;SDS011;25571;47.876;10.642;2023-05-19T05:02:11;5.85;;;4.25;;
39898;SDS011;25571;47.876;10.642;2023-05-19T05:04:37;8.43;;;3.97;;
39898;SDS011;25571;47.876;10.642;2023-05-19T05:09:32;6.65;;;4.20;;
39898;SDS011;25571;47.876;10.642;2023-05-19T05:11:58;5.00;;;3.75;;
39898;SDS011;25571;47.876;10.642;2023-05-19T05:14:24;6.60;;;4.30;;
39898;SDS011;25571;47.876;10.642;2023-05-19T05:16:49;5.78;;;4.13;;
39898;SDS011;25571;47.876;10.642;2023-05-19T05:19:15;6.25;;;3.80;;
39898;SDS011;25571;47.876;10.642;2023-05-19T05:21:41;6.55;;;3.90;;
39898;SDS011;25571;47.876;10.642;2023-05-19T05:24:07;6.65;;;3.58;;
39898;SDS011;25571;47.876;10.642;2023-05-19T05:26:34;5.72;;;3.75;;
39898;SDS011;25571;47.876;10.642;2023-05-19T05:29:00;7.70;;;3.85;;
39898;SDS011;25571;47.876;10.642;2023-05-19T05:31:26;4.53;;;3.75;;
39898;SDS011;25571;47.876;10.642;2023-05-19T05:33:52;6.90;;;4.18;;
39898;SDS011;25571;47.876;10.642;2023-05-19T05:36:17;6.78;;;3.70;;
39898;SDS011;25571;47.876;10.642;2023-05-19T05:38:43;7.60;;;4.00;;
39898;SDS011;25571;47.876;10.642;2023-05-19T05:41:08;4.78;;;3.22;;
39898;SDS011;25571;47.876;10.642;2023-05-19T05:43:34;6.93;;;3.67;;
39898;SDS011;25571;47.876;10.642;2023-05-19T05:46:00;10.50;;;4.50;;
39898;SDS011;25571;47.876;10.642;2023-05-19T05:48:25;7.15;;;4.63;;
39898;SDS011;25571;47.876;10.642;2023-05-19T05:50:51;5.72;;;4.05;;
39898;SDS011;25571;47.876;10.642;2023-05-19T05:53:17;7.38;;;4.50;;
39898;SDS011;25571;47.876;10.642;2023-05-19T05:55:47;6.53;;;4.35;;
39898;SDS011;25571;47.876;10.642;2023-05-19T06:00:40;6.90;;;4.18;;
39898;SDS011;25571;47.876;10.642;2023-05-19T06:03:09;8.43;;;4.20;;
39898;SDS011;25571;47.876;10.642;2023-05-19T06:05:35;7.07;;;4.05;;
39898;SDS011;25571;47.876;10.642;2023-05-19T06:08:02;7.88;;;4.53;;
39898;SDS011;25571;47.876;10.642;2023-05-19T06:10:27;6.60;;;3.83;;
39898;SDS011;25571;47.876;10.642;2023-05-19T06:12:53;7.10;;;4.13;;
39898;SDS011;25571;47.876;10.642;2023-05-19T06:15:20;5.88;;;4.07;;
39898;SDS011;25571;47.876;10.642;2023-05-19T06:17:45;6.35;;;3.90;;
39898;SDS011;25571;47.876;10.642;2023-05-19T06:20:11;6.45;;;3.72;;
39898;SDS011;25571;47.876;10.642;2023-05-19T06:22:37;7.35;;;3.80;;
39898;SDS011;25571;47.876;10.642;2023-05-19T06:25:03;6.43;;;3.90;;
39898;SDS011;25571;47.876;10.642;2023-05-19T06:27:29;6.95;;;3.88;;
39898;SDS011;25571;47.876;10.642;2023-05-19T06:29:55;12.13;;;4.30;;
39898;SDS011;25571;47.876;10.642;2023-05-19T06:32:21;5.47;;;3.83;;
39898;SDS011;25571;47.876;10.642;2023-05-19T06:34:46;3.90;;;3.05;;
39898;SDS011;25571;47.876;10.642;2023-05-19T06:37:18;5.68;;;3.80;;
39898;SDS011;25571;47.876;10.642;2023-05-19T06:39:45;5.38;;;3.20;;
39898;SDS011;25571;47.876;10.642;2023-05-19T06:42:11;4.55;;;2.85;;
39898;SDS011;25571;47.876;10.642;2023-05-19T06:44:36;5.07;;;3.97;;
39898;SDS011;25571;47.876;10.642;2023-05-19T06:47:02;8.70;;;4.63;;
39898;SDS011;25571;47.876;10.642;2023-05-19T06:49:27;7.15;;;4.05;;
39898;SDS011;25571;47.876;10.642;2023-05-19T06:51:53;5.75;;;3.55;;
39898;SDS011;25571;47.876;10.642;2023-05-19T06:54:19;6.47;;;4.22;;
39898;SDS011;25571;47.876;10.642;2023-05-19T06:56:45;6.60;;;4.03;;
39898;SDS011;25571;47.876;10.642;2023-05-19T06:59:10;6.47;;;3.55;;
39898;SDS011;25571;47.876;10.642;2023-05-19T07:01:36;7.95;;;4.13;;
39898;SDS011;25571;47.876;10.642;2023-05-19T07:04:01;5.80;;;3.53;;
39898;SDS011;25571;47.876;10.642;2023-05-19T07:06:27;5.93;;;3.22;;
39898;SDS011;25571;47.876;10.642;2023-05-19T07:08:52;5.22;;;3.80;;
39898;SDS011;25571;47.876;10.642;2023-05-19T07:11:18;5.53;;;3.47;;
39898;SDS011;25571;47.876;10.642;2023-05-19T07:13:44;4.65;;;3.58;;
39898;SDS011;25571;47.876;10.642;2023-05-19T07:16:09;6.80;;;3.78;;
39898;SDS011;25571;47.876;10.642;2023-05-19T07:18:35;6.90;;;3.67;;
39898;SDS011;25571;47.876;10.642;2023-05-19T07:21:00;6.75;;;3.28;;
39898;SDS011;25571;47.876;10.642;2023-05-19T07:23:26;6.47;;;4.35;;
39898;SDS011;25571;47.876;10.642;2023-05-19T07:25:54;6.45;;;3.88;;
39898;SDS011;25571;47.876;10.642;2023-05-19T07:28:20;5.28;;;3.35;;
39898;SDS011;25571;47.876;10.642;2023-05-19T07:30:46;7.05;;;3.17;;
39898;SDS011;25571;47.876;10.642;2023-05-19T07:33:12;4.22;;;3.35;;
39898;SDS011;25571;47.876;10.642;2023-05-19T07:35:37;5.75;;;2.88;;
39898;SDS011;25571;47.876;10.642;2023-05-19T07:38:03;5.60;;;3.05;;
39898;SDS011;25571;47.876;10.642;2023-05-19T07:40:31;5.28;;;3.17;;
39898;SDS011;25571;47.876;10.642;2023-05-19T07:42:56;5.95;;;3.00;;
39898;SDS011;25571;47.876;10.642;2023-05-19T07:45:22;5.22;;;3.03;;
39898;SDS011;25571;47.876;10.642;2023-05-19T07:47:47;4.25;;;3.22;;
39898;SDS011;25571;47.876;10.642;2023-05-19T07:50:13;5.72;;;3.30;;
39898;SDS011;25571;47.876;10.642;2023-05-19T07:52:39;5.65;;;3.85;;
39898;SDS011;25571;47.876;10.642;2023-05-19T07:55:04;3.88;;;2.83;;
39898;SDS011;25571;47.876;10.642;2023-05-19T07:57:30;5.60;;;3.20;;
39898;SDS011;25571;47.876;10.642;2023-05-19T07:59:56;6.65;;;3.60;;
39898;SDS011;25571;47.876;10.642;2023-05-19T08:02:22;4.38;;;3.60;;
39898;SDS011;25571;47.876;10.642;2023-05-19T08:04:47;5.72;;;3.20;;
39898;SDS011;25571;47.876;10.642;2023-05-19T08:07:13;4.68;;;3.03;;
39898;SDS011;25571;47.876;10.642;2023-05-19T08:09:38;5.50;;;3.45;;
39898;SDS011;25571;47.876;10.642;2023-05-19T08:12:04;5.82;;;2.70;;
39898;SDS011;25571;47.876;10.642;2023-05-19T08:14:30;6.07;;;2.67;;
39898;SDS011;25571;47.876;10.642;2023-05-19T08:16:57;4.90;;;2.70;;
39898;SDS011;25571;47.876;10.642;2023-05-19T08:19:22;4.03;;;2.97;;
39898;SDS011;25571;47.876;10.642;2023-05-19T08:21:48;4.03;;;2.80;;
39898;SDS011;25571;47.876;10.642;2023-05-19T08:24:14;6.55;;;3.35;;
39898;SDS011;25571;47.876;10.642;2023-05-19T08:26:39;6.38;;;2.97;;
39898;SDS011;25571;47.876;10.642;2023-05-19T08:29:05;5.70;;;3.03;;
39898;SDS011;25571;47.876;10.642;2023-05-19T08:31:31;7.35;;;3.80;;
39898;SDS011;25571;47.876;10.642;2023-05-19T08:33:56;7.13;;;3.50;;
39898;SDS011;25571;47.876;10.642;2023-05-19T08:36:22;6.53;;;3.10;;
39898;SDS011;25571;47.876;10.642;2023-05-19T08:38:48;4.93;;;2.67;;
39898;SDS011;25571;47.876;10.642;2023-05-19T08:41:14;5.88;;;3.47;;
39898;SDS011;25571;47.876;10.642;2023-05-19T08:43:40;5.40;;;2.95;;
39898;SDS011;25571;47.876;10.642;2023-05-19T08:46:06;4.28;;;3.13;;
39898;SDS011;25571;47.876;10.642;2023-05-19T08:48:34;6.03;;;2.92;;
39898;SDS011;25571;47.876;10.642;2023-05-19T08:51:07;5.55;;;2.88;;
39898;SDS011;25571;47.876;10.642;2023-05-19T08:53:41;5.97;;;3.13;;
39898;SDS011;25571;47.876;10.642;2023-05-19T08:56:17;6.68;;;3.40;;
39898;SDS011;25571;47.876;10.642;2023-05-19T08:58:49;4.93;;;3.15;;
39898;SDS011;25571;47.876;10.642;2023-05-19T09:01:15;4.90;;;2.80;;
39898;SDS011;25571;47.876;10.642;2023-05-19T09:03:42;8.52;;;3.28;;
39898;SDS011;25571;47.876;10.642;2023-05-19T09:06:08;5.53;;;2.88;;
39898;SDS011;25571;47.876;10.642;2023-05-19T09:08:36;4.90;;;3.07;;
39898;SDS011;25571;47.876;10.642;2023-05-19T09:11:02;4.72;;;3.00;;
39898;SDS011;25571;47.876;10.642;2023-05-19T09:13:28;6.43;;;3.45;;
39898;SDS011;25571;47.876;10.642;2023-05-19T09:15:55;5.28;;;3.05;;
39898;SDS011;25571;47.876;10.642;2023-05-19T09:18:22;4.63;;;3.17;;
39898;SDS011;25571;47.876;10.642;2023-05-19T09:20:49;3.92;;;2.53;;
39898;SDS011;25571;47.876;10.642;2023-05-19T09:23:16;4.30;;;2.92;;
39898;SDS011;25571;47.876;10.642;2023-05-19T09:25:45;5.63;;;3.80;;
39898;SDS011;25571;47.876;10.642;2023-05-19T09:28:12;4.15;;;3.03;;
39898;SDS011;25571;47.876;10.642;2023-05-19T09:30:38;2.60;;;2.25;;
39898;SDS011;25571;47.876;10.642;2023-05-19T09:33:03;5.85;;;3.17;;
39898;SDS011;25571;47.876;10.642;2023-05-19T09:35:33;4.40;;;2.65;;
39898;SDS011;25571;47.876;10.642;2023-05-19T09:37:59;5.05;;;3.55;;
39898;SDS011;25571;47.876;10.642;2023-05-19T09:40:26;5.55;;;2.97;;
39898;SDS011;25571;47.876;10.642;2023-05-19T09:42:52;4.35;;;2.30;;
39898;SDS011;25571;47.876;10.642;2023-05-19T09:45:18;4.32;;;2.88;;
39898;SDS011;25571;47.876;10.642;2023-05-19T09:47:44;4.35;;;2.75;;
39898;SDS011;25571;47.876;10.642;2023-05-19T09:50:10;5.65;;;3.33;;
39898;SDS011;25571;47.876;10.642;2023-05-19T09:52:37;5.45;;;3.28;;
39898;SDS011;25571;47.876;10.642;2023-05-19T09:55:12;6.00;;;3.22;;
39898;SDS011;25571;47.876;10.642;2023-05-19T09:57:38;4.55;;;3.05;;
39898;SDS011;25571;47.876;10.642;2023-05-19T10:00:05;5.75;;;3.00;;
39898;SDS011;25571;47.876;10.642;2023-05-19T10:02:44;5.22;;;3.05;;
39898;SDS011;25571;47.876;10.642;2023-05-19T10:05:14;3.90;;;2.90;;
39898;SDS011;25571;47.876;10.642;2023-05-19T10:07:41;3.80;;;3.05;;
39898;SDS011;25571;47.876;10.642;2023-05-19T10:10:08;4.72;;;2.67;;
39898;SDS011;25571;47.876;10.642;2023-05-19T10:12:37;7.22;;;2.70;;
39898;SDS011;25571;47.876;10.642;2023-05-19T10:15:05;8.38;;;3.33;;
39898;SDS011;25571;47.876;10.642;2023-05-19T10:17:37;6.20;;;2.70;;
39898;SDS011;25571;47.876;10.642;2023-05-19T10:20:05;2.92;;;2.33;;
39898;SDS011;25571;47.876;10.642;2023-05-19T10:22:33;4.93;;;2.65;;
39898;SDS011;25571;47.876;10.642;2023-05-19T10:24:59;4.60;;;2.63;;
39898;SDS011;25571;47.876;10.642;2023-05-19T10:27:24;5.50;;;2.53;;
39898;SDS011;25571;47.876;10.642;2023-05-19T10:29:53;3.75;;;2.50;;
39898;SDS011;25571;47.876;10.642;2023-05-19T10:32:21;3.95;;;2.95;;
39898;SDS011;25571;47.876;10.642;2023-05-19T10:43:24;4.38;;;2.88;;
39898;SDS011;25571;47.876;10.642;2023-05-19T10:46:12;6.25;;;2.42;;
39898;SDS011;25571;47.876;10.642;2023-05-19T10:48:38;5.25;;;2.55;;
39898;SDS011;25571;47.876;10.642;2023-05-19T10:51:09;4.43;;;2.83;;
39898;SDS011;25571;47.876;10.642;2023-05-19T10:53:37;4.38;;;2.88;;
39898;SDS011;25571;47.876;10.642;2023-05-19T10:56:05;3.22;;;2.92;;
39898;SDS011;25571;47.876;10.642;2023-05-19T11:01:12;6.38;;;3.50;;
39898;SDS011;25571;47.876;10.642;2023-05-19T11:03:48;6.05;;;3.00;;
39898;SDS011;25571;47.876;10.642;2023-05-19T11:08:44;6.43;;;3.30;;
39898;SDS011;25571;47.876;10.642;2023-05-19T11:11:15;4.30;;;3.47;;
39898;SDS011;25571;47.876;10.642;2023-05-19T11:13:50;4.10;;;3.30;;
39898;SDS011;25571;47.876;10.642;2023-05-19T11:16:20;4.53;;;3.50;;
39898;SDS011;25571;47.876;10.642;2023-05-19T11:18:52;6.10;;;4.35;;
39898;SDS011;25571;47.876;10.642;2023-05-19T11:21:19;8.30;;;5.28;;
39898;SDS011;25571;47.876;10.642;2023-05-19T11:23:45;5.40;;;4.10;;
39898;SDS011;25571;47.876;10.642;2023-05-19T11:26:10;11.82;;;7.78;;
39898;SDS011;25571;47.876;10.642;2023-05-19T11:28:37;7.43;;;5.40;;
39898;SDS011;25571;47.876;10.642;2023-05-19T11:31:03;7.70;;;4.78;;
39898;SDS011;25571;47.876;10.642;2023-05-19T11:33:31;4.75;;;3.83;;
39898;SDS011;25571;47.876;10.642;2023-05-19T11:35:57;4.72;;;3.35;;
39898;SDS011;25571;47.876;10.642;2023-05-19T11:38:23;5.95;;;4.20;;
39898;SDS011;25571;47.876;10.642;2023-05-19T11:40:53;6.72;;;4.57;;
39898;SDS011;25571;47.876;10.642;2023-05-19T11:43:22;4.82;;;3.70;;
39898;SDS011;25571;47.876;10.642;2023-05-19T11:45:48;6.88;;;3.88;;
39898;SDS011;25571;47.876;10.642;2023-05-19T11:48:14;12.77;;;8.70;;
39898;SDS011;25571;47.876;10.642;2023-05-19T11:50:41;9.77;;;7.68;;
39898;SDS011;25571;47.876;10.642;2023-05-19T11:53:07;10.88;;;8.85;;
39898;SDS011;25571;47.876;10.642;2023-05-19T11:55:40;10.35;;;7.57;;
39898;SDS011;25571;47.876;10.642;2023-05-19T11:58:08;18.77;;;13.15;;
39898;SDS011;25571;47.876;10.642;2023-05-19T12:00:34;16.88;;;10.90;;
39898;SDS011;25571;47.876;10.642;2023-05-19T12:05:28;11.98;;;9.50;;
39898;SDS011;25571;47.876;10.642;2023-05-19T12:07:55;10.98;;;7.38;;
39898;SDS011;25571;47.876;10.642;2023-05-19T12:10:28;9.38;;;6.38;;
39898;SDS011;25571;47.876;10.642;2023-05-19T12:12:55;5.93;;;4.30;;
39898;SDS011;25571;47.876;10.642;2023-05-19T12:15:22;6.38;;;4.93;;
39898;SDS011;25571;47.876;10.642;2023-05-19T12:17:58;9.40;;;5.93;;
39898;SDS011;25571;47.876;10.642;2023-05-19T12:20:25;13.20;;;7.40;;
39898;SDS011;25571;47.876;10.642;2023-05-19T12:22:53;6.70;;;4.72;;
39898;SDS011;25571;47.876;10.642;2023-05-19T12:25:19;6.82;;;4.95;;
39898;SDS011;25571;47.876;10.642;2023-05-19T12:27:46;10.77;;;6.63;;
39898;SDS011;25571;47.876;10.642;2023-05-19T12:30:13;5.82;;;5.00;;
39898;SDS011;25571;47.876;10.642;2023-05-19T12:32:40;5.72;;;4.43;;
39898;SDS011;25571;47.876;10.642;2023-05-19T12:35:07;6.38;;;3.72;;
39898;SDS011;25571;47.876;10.642;2023-05-19T12:37:33;4.85;;;3.70;;
39898;SDS011;25571;47.876;10.642;2023-05-19T12:40:01;7.68;;;4.35;;
39898;SDS011;25571;47.876;10.642;2023-05-19T12:42:30;5.60;;;3.70;;
39898;SDS011;25571;47.876;10.642;2023-05-19T12:44:56;6.07;;;4.50;;
39898;SDS011;25571;47.876;10.642;2023-05-19T12:47:28;4.93;;;4.32;;
39898;SDS011;25571;47.876;10.642;2023-05-19T12:50:05;6.20;;;4.15;;
39898;SDS011;25571;47.876;10.642;2023-05-19T12:52:34;5.78;;;4.47;;
39898;SDS011;25571;47.876;10.642;2023-05-19T12:55:05;6.30;;;4.00;;
39898;SDS011;25571;47.876;10.642;2023-05-19T12:57:37;5.90;;;4.53;;
39898;SDS011;25571;47.876;10.642;2023-05-19T13:00:05;6.95;;;3.95;;
39898;SDS011;25571;47.876;10.642;2023-05-19T13:02:34;7.78;;;4.97;;
39898;SDS011;25571;47.876;10.642;2023-05-19T13:05:18;4.93;;;4.03;;
39898;SDS011;25571;47.876;10.642;2023-05-19T13:10:20;4.93;;;4.03;;
39898;SDS011;25571;47.876;10.642;2023-05-19T13:12:46;6.95;;;4.28;;
39898;SDS011;25571;47.876;10.642;2023-05-19T13:15:11;5.55;;;4.70;;
39898;SDS011;25571;47.876;10.642;2023-05-19T13:17:37;6.80;;;5.30;;
39898;SDS011;25571;47.876;10.642;2023-05-19T13:20:04;5.55;;;4.85;;
39898;SDS011;25571;47.876;10.642;2023-05-19T13:22:30;6.45;;;5.78;;
39898;SDS011;25571;47.876;10.642;2023-05-19T13:24:56;5.78;;;4.38;;
39898;SDS011;25571;47.876;10.642;2023-05-19T13:27:23;5.20;;;4.38;;
39898;SDS011;25571;47.876;10.642;2023-05-19T13:29:49;6.18;;;4.53;;
39898;SDS011;25571;47.876;10.642;2023-05-19T13:32:15;5.40;;;4.80;;
39898;SDS011;25571;47.876;10.642;2023-05-19T13:34:40;6.38;;;4.60;;
39898;SDS011;25571;47.876;10.642;2023-05-19T13:37:06;9.63;;;7.53;;
39898;SDS011;25571;47.876;10.642;2023-05-19T13:39:33;8.07;;;6.10;;
39898;SDS011;25571;47.876;10.642;2023-05-19T13:41:59;6.78;;;5.32;;
39898;SDS011;25571;47.876;10.642;2023-05-19T13:44:25;5.45;;;4.88;;
39898;SDS011;25571;47.876;10.642;2023-05-19T13:46:50;6.32;;;4.40;;
39898;SDS011;25571;47.876;10.642;2023-05-19T13:49:16;5.40;;;4.78;;
39898;SDS011;25571;47.876;10.642;2023-05-19T13:51:41;6.35;;;5.15;;
39898;SDS011;25571;47.876;10.642;2023-05-19T13:54:08;5.88;;;4.22;;
39898;SDS011;25571;47.876;10.642;2023-05-19T13:56:34;6.10;;;5.30;;
39898;SDS011;25571;47.876;10.642;2023-05-19T13:58:59;5.97;;;4.68;;
39898;SDS011;25571;47.876;10.642;2023-05-19T14:01:25;5.55;;;4.93;;
39898;SDS011;25571;47.876;10.642;2023-05-19T14:03:51;6.30;;;4.63;;
39898;SDS011;25571;47.876;10.642;2023-05-19T14:06:16;5.82;;;5.28;;
39898;SDS011;25571;47.876;10.642;2023-05-19T14:08:42;7.10;;;6.00;;
39898;SDS011;25571;47.876;10.642;2023-05-19T14:11:08;8.80;;;6.55;;
39898;SDS011;25571;47.876;10.642;2023-05-19T14:13:34;7.10;;;5.82;;
39898;SDS011;25571;47.876;10.642;2023-05-19T14:15:59;6.55;;;5.80;;
39898;SDS011;25571;47.876;10.642;2023-05-19T14:18:25;7.70;;;5.72;;
39898;SDS011;25571;47.876;10.642;2023-05-19T14:20:51;6.38;;;5.47;;
39898;SDS011;25571;47.876;10.642;2023-05-19T14:23:16;8.23;;;5.25;;
39898;SDS011;25571;47.876;10.642;2023-05-19T14:25:43;7.72;;;5.20;;
39898;SDS011;25571;47.876;10.642;2023-05-19T14:28:09;5.85;;;4.53;;
39898;SDS011;25571;47.876;10.642;2023-05-19T14:30:35;5.43;;;4.38;;
39898;SDS011;25571;47.876;10.642;2023-05-19T14:33:00;7.82;;;5.63;;
39898;SDS011;25571;47.876;10.642;2023-05-19T14:35:26;6.47;;;5.50;;
39898;SDS011;25571;47.876;10.642;2023-05-19T14:37:52;7.22;;;5.80;;
39898;SDS011;25571;47.876;10.642;2023-05-19T14:40:17;10.80;;;5.63;;
39898;SDS011;25571;47.876;10.642;2023-05-19T14:42:43;9.32;;;5.65;;
39898;SDS011;25571;47.876;10.642;2023-05-19T14:45:08;7.90;;;6.13;;
39898;SDS011;25571;47.876;10.642;2023-05-19T14:47:34;7.25;;;5.53;;
39898;SDS011;25571;47.876;10.642;2023-05-19T14:50:00;7.60;;;6.07;;
39898;SDS011;25571;47.876;10.642;2023-05-19T14:52:26;8.57;;;6.00;;
39898;SDS011;25571;47.876;10.642;2023-05-19T14:54:51;7.00;;;6.07;;
39898;SDS011;25571;47.876;10.642;2023-05-19T14:57:17;8.88;;;5.80;;
39898;SDS011;25571;47.876;10.642;2023-05-19T14:59:42;8.45;;;6.25;;
39898;SDS011;25571;47.876;10.642;2023-05-19T15:02:08;5.97;;;5.38;;
39898;SDS011;25571;47.876;10.642;2023-05-19T15:04:35;5.80;;;5.20;;
39898;SDS011;25571;47.876;10.642;2023-05-19T15:07:00;7.75;;;6.13;;
39898;SDS011;25571;47.876;10.642;2023-05-19T15:09:26;6.38;;;5.78;;
39898;SDS011;25571;47.876;10.642;2023-05-19T15:11:52;6.78;;;6.00;;
39898;SDS011;25571;47.876;10.642;2023-05-19T15:14:17;7.10;;;6.05;;